M I D A S
Marine Information and Data Acquisition System
Tripno 1155 of the Zeeleeuw from 2006-08-29 06:31:26 to 2006-08-29 13:58:49
Back to CruiseResearch ActivitiesStationsMapUnderway DataData graphs

EquipmentUnitsComment
TimeDGPSUTC
LatitudeDGPSDM.mWGS84
LongitudeDGPSDM.mWGS84
HeadingGyrodeg 
SOGDGPSknotsSpeed over ground
COGDGPSdegCourse over ground
DepthEcho soundermeters200 kHz
Missing or incorrect values are displayed as -999
Navigation data collected by the RV Zeeleeuw from 2006-08-29 06:30:03 to 2006-08-29 14:10:36
                                                                                    Next 1000 lines
Time Latitude Longitude Heading SOG COG Depth
2006-08-29 06:30:12 51°13.599 2°56.086 108.6 1.4 287 8.3
2006-08-29 06:30:18 51°13.6 2°56.082 108.6 1.6 289 8.5
2006-08-29 06:30:23 51°13.601 2°56.078 108.9 1.9 288 8.7
2006-08-29 06:30:28 51°13.602 2°56.074 109.8 2 291 -999
2006-08-29 06:30:33 51°13.603 2°56.07 110.8 2.2 290 -999
2006-08-29 06:30:38 51°13.604 2°56.065 111.8 2.4 291 -999
2006-08-29 06:30:43 51°13.605 2°56.06 112.6 2.5 292 -999
2006-08-29 06:30:48 51°13.607 2°56.054 113.3 2.6 292 -999
2006-08-29 06:30:53 51°13.608 2°56.049 113.9 2.7 293 -999
2006-08-29 06:30:58 51°13.61 2°56.043 114.6 2.7 293 -999
2006-08-29 06:31:04 51°13.612 2°56.037 115.8 2.7 294 -999
2006-08-29 06:31:08 51°13.613 2°56.032 116.8 2.8 294 -999
2006-08-29 06:31:13 51°13.614 2°56.027 118 2.8 294 -999
2006-08-29 06:31:18 51°13.616 2°56.021 119.1 2.9 294 -999
2006-08-29 06:31:23 51°13.618 2°56.015 120.3 3 295 -999
2006-08-29 06:31:29 51°13.62 2°56.007 121.9 3 296 -999
2006-08-29 06:31:33 51°13.622 2°56.003 123.2 3.2 298 -999
2006-08-29 06:31:38 51°13.624 2°55.997 124.2 3.2 300 -999
2006-08-29 06:31:43 51°13.626 2°55.99 125.9 3.3 300 -999
2006-08-29 06:31:48 51°13.629 2°55.984 127.4 3.3 302 -999
2006-08-29 06:31:53 51°13.631 2°55.977 128.3 3.3 303 -999
2006-08-29 06:31:59 51°13.634 2°55.97 129.1 3.4 304 -999
2006-08-29 06:32:03 51°13.636 2°55.965 129.7 3.3 305 -999
2006-08-29 06:32:08 51°13.639 2°55.959 130.5 3.4 306 -999
2006-08-29 06:32:13 51°13.642 2°55.953 131 3.4 307 -999
2006-08-29 06:32:18 51°13.645 2°55.947 131.5 3.5 308 -999
2006-08-29 06:32:23 51°13.648 2°55.941 131.8 3.5 308 -999
2006-08-29 06:32:28 51°13.651 2°55.935 131.9 3.5 309 -999
2006-08-29 06:32:33 51°13.654 2°55.93 131.9 3.5 309 -999
2006-08-29 06:32:39 51°13.658 2°55.923 131.7 3.5 309 -999
2006-08-29 06:32:43 51°13.66 2°55.918 131.3 3.5 309 -999
2006-08-29 06:32:48 51°13.663 2°55.912 130.9 3.5 310 -999
2006-08-29 06:32:53 51°13.666 2°55.906 130.4 3.5 308 -999
2006-08-29 06:32:59 51°13.67 2°55.899 129.9 3.5 309 -999
2006-08-29 06:33:03 51°13.672 2°55.893 129.1 3.5 308 -999
2006-08-29 06:33:09 51°13.676 2°55.886 128.5 3.5 307 -999
2006-08-29 06:33:13 51°13.678 2°55.881 127.6 3.5 307 -999
2006-08-29 06:33:18 51°13.681 2°55.874 126.7 3.5 306 -999
2006-08-29 06:33:23 51°13.684 2°55.868 125.5 3.6 305 -999
2006-08-29 06:33:28 51°13.687 2°55.861 124.4 3.6 304 -999
2006-08-29 06:33:33 51°13.69 2°55.854 123.3 3.7 303 -999
2006-08-29 06:33:38 51°13.692 2°55.847 122.4 3.7 303 -999
2006-08-29 06:33:43 51°13.695 2°55.841 120.9 3.7 302 -999
2006-08-29 06:33:48 51°13.698 2°55.833 119.6 3.7 300 -999
2006-08-29 06:33:53 51°13.7 2°55.827 118.3 3.7 300 -999
2006-08-29 06:33:58 51°13.703 2°55.819 117.1 3.7 298 -999
2006-08-29 06:34:03 51°13.705 2°55.812 115.5 3.7 297 -999
2006-08-29 06:34:09 51°13.707 2°55.803 113.5 3.7 295 -999
2006-08-29 06:34:13 51°13.709 2°55.797 112.2 3.7 293 -999
2006-08-29 06:34:18 51°13.711 2°55.79 110.4 3.6 291 -999
2006-08-29 06:34:23 51°13.712 2°55.783 109 3.5 290 -999
2006-08-29 06:34:28 51°13.714 2°55.776 107.2 3.3 290 -999
2006-08-29 06:34:33 51°13.715 2°55.769 105.7 3.3 287 -999
2006-08-29 06:34:39 51°13.717 2°55.761 104.6 3.1 285 -999
2006-08-29 06:34:43 51°13.718 2°55.756 103.2 3.1 285 -999
2006-08-29 06:34:48 51°13.718 2°55.75 101.9 3 283 -999
2006-08-29 06:34:54 51°13.719 2°55.742 100.5 2.9 282 -999
2006-08-29 06:34:58 51°13.72 2°55.737 98.9 2.8 281 -999
2006-08-29 06:35:03 51°13.721 2°55.731 98.1 2.7 280 -999
2006-08-29 06:35:08 51°13.721 2°55.727 97.3 2.4 279 -999
2006-08-29 06:35:13 51°13.721 2°55.722 95.8 2 277 -999
2006-08-29 06:35:18 51°13.722 2°55.719 93.9 1.6 279 12.1
2006-08-29 06:35:23 51°13.722 2°55.717 91.6 1.3 277 12.1
2006-08-29 06:35:28 51°13.722 2°55.715 89.6 0.8 283 11.9
2006-08-29 06:35:33 51°13.722 2°55.714 87.4 0.5 286 11.9
2006-08-29 06:35:37 51°13.722 2°55.714 84.1 0.3 319 11.9
2006-08-29 06:35:42 51°13.723 2°55.714 79.7 0.3 22 11.9
2006-08-29 06:35:48 51°13.724 2°55.716 75.3 0.5 44 12
2006-08-29 06:35:52 51°13.724 2°55.716 71.3 0.7 51 11.9
2006-08-29 06:35:58 51°13.725 2°55.719 66 1 48 11.8
2006-08-29 06:36:03 51°13.726 2°55.721 60.4 1.2 49 11.7
2006-08-29 06:36:08 51°13.728 2°55.723 54.9 1.4 42 11.5
2006-08-29 06:36:12 51°13.729 2°55.725 49.1 1.6 40 11.7
2006-08-29 06:36:18 51°13.731 2°55.727 43.3 1.5 36 11.6
2006-08-29 06:36:22 51°13.732 2°55.728 37.4 1.1 29 -999
2006-08-29 06:36:28 51°13.733 2°55.728 34.1 0.7 35 11.3
2006-08-29 06:36:31 51°13.733 2°55.729 30.4 0.3 22 11.3
2006-08-29 06:36:38 51°13.733 2°55.729 27.6 -999 111 11.3
2006-08-29 06:36:41 51°13.733 2°55.728 25 0.2 207 11.3
2006-08-29 06:36:47 51°13.732 2°55.728 22.9 0.4 202 11.4
2006-08-29 06:36:53 51°13.731 2°55.728 21.6 0.8 197 11.5
2006-08-29 06:36:58 51°13.729 2°55.727 21 1 193 11.7
2006-08-29 06:37:02 51°13.728 2°55.726 20 1 199 11.8
2006-08-29 06:37:08 51°13.727 2°55.725 19.8 1 198 -999
2006-08-29 06:37:13 51°13.726 2°55.725 19.7 0.7 207 -999
2006-08-29 06:37:18 51°13.725 2°55.725 18.1 0.3 192 -999
2006-08-29 06:37:23 51°13.726 2°55.725 15.8 0.2 337 -999
2006-08-29 06:37:28 51°13.726 2°55.725 12 0.4 4 -999
2006-08-29 06:37:33 51°13.728 2°55.725 7.3 0.7 357 -999
2006-08-29 06:37:39 51°13.729 2°55.724 2.1 1.1 356 -999
2006-08-29 06:37:43 51°13.731 2°55.724 356.5 1.3 350 -999
2006-08-29 06:37:48 51°13.733 2°55.723 350.5 1.7 346 -999
2006-08-29 06:37:53 51°13.736 2°55.721 344.7 2 341 -999
2006-08-29 06:37:58 51°13.739 2°55.719 339.3 2.4 337 -999
2006-08-29 06:38:03 51°13.742 2°55.716 335.3 2.7 333 -999
2006-08-29 06:38:08 51°13.746 2°55.713 332.7 3.1 331 -999
2006-08-29 06:38:13 51°13.75 2°55.709 331.1 3.4 329 10.6
2006-08-29 06:38:18 51°13.755 2°55.704 329.7 3.8 329 10.5
2006-08-29 06:38:22 51°13.759 2°55.7 329.1 4.2 326 10.5
2006-08-29 06:38:28 51°13.766 2°55.693 329.2 4.5 328 10.7
2006-08-29 06:38:33 51°13.771 2°55.687 329.6 4.9 327 10.8
2006-08-29 06:38:37 51°13.776 2°55.682 329.6 5.2 328 10.8
2006-08-29 06:38:43 51°13.784 2°55.674 330 5.5 328 11
2006-08-29 06:38:48 51°13.791 2°55.668 330.4 5.7 328 10.9
2006-08-29 06:38:53 51°13.798 2°55.661 331.2 5.9 329 10.9
2006-08-29 06:38:58 51°13.805 2°55.655 331.7 6.1 330 11.1
2006-08-29 06:39:02 51°13.811 2°55.649 332.5 6.2 331 11.3
2006-08-29 06:39:08 51°13.821 2°55.641 333.3 6.3 331 11.3
2006-08-29 06:39:13 51°13.828 2°55.634 334.2 6.4 332 11.6
2006-08-29 06:39:18 51°13.836 2°55.627 335.1 6.6 333 11.2
2006-08-29 06:39:22 51°13.843 2°55.622 335.9 6.6 333 11.2
2006-08-29 06:39:28 51°13.853 2°55.614 336.4 6.7 334 11.1
2006-08-29 06:39:32 51°13.86 2°55.609 336.4 6.8 333 10.7
2006-08-29 06:39:38 51°13.87 2°55.601 336.7 6.8 335 10.7
2006-08-29 06:39:42 51°13.877 2°55.596 337.5 6.9 334 10.8
2006-08-29 06:39:48 51°13.887 2°55.589 338.2 6.9 335 11
2006-08-29 06:39:52 51°13.895 2°55.584 338.2 7 335 11.1
2006-08-29 06:39:58 51°13.905 2°55.576 338.2 7 336 11.1
2006-08-29 06:40:02 51°13.913 2°55.571 338.6 7.1 336 11.4
2006-08-29 06:40:08 51°13.923 2°55.564 338.9 7.1 337 11.2
2006-08-29 06:40:12 51°13.931 2°55.559 339 7.1 337 11.4
2006-08-29 06:40:17 51°13.94 2°55.552 338.9 7.1 337 11.4
2006-08-29 06:40:23 51°13.951 2°55.545 339 7.2 338 11.8
2006-08-29 06:40:28 51°13.96 2°55.539 339.7 7.2 338 11.3
2006-08-29 06:40:32 51°13.967 2°55.534 340.1 7.2 338 11.3
2006-08-29 06:40:37 51°13.977 2°55.528 339.9 7.2 338 11.2
2006-08-29 06:40:43 51°13.988 2°55.521 339.9 7.3 338 11.1
2006-08-29 06:40:48 51°13.997 2°55.515 339.9 7.2 337 11
2006-08-29 06:40:52 51°14.004 2°55.51 339.9 7.2 337 10.9
2006-08-29 06:40:58 51°14.016 2°55.503 340 7.2 338 10.9
2006-08-29 06:41:02 51°14.023 2°55.497 339.2 7.3 336 10.9
2006-08-29 06:41:08 51°14.034 2°55.49 339.3 7.4 337 10.9
2006-08-29 06:41:12 51°14.042 2°55.485 339.8 7.5 337 10.9
2006-08-29 06:41:18 51°14.053 2°55.477 339.5 7.6 337 10.9
2006-08-29 06:41:22 51°14.061 2°55.471 338.9 7.6 336 10.8
2006-08-29 06:41:28 51°14.073 2°55.463 338.9 7.6 336 10.8
2006-08-29 06:41:33 51°14.082 2°55.456 338.7 7.7 336 10.9
2006-08-29 06:41:38 51°14.093 2°55.449 338.2 7.8 336 10.8
2006-08-29 06:41:42 51°14.1 2°55.443 337.6 7.9 335 10.9
2006-08-29 06:41:48 51°14.113 2°55.434 337.5 8.1 335 10.8
2006-08-29 06:41:52 51°14.121 2°55.428 337.2 8.2 334 10.9
2006-08-29 06:41:58 51°14.133 2°55.418 336 8.3 333 11.1
2006-08-29 06:42:02 51°14.141 2°55.411 335.3 8.3 333 10.8
2006-08-29 06:42:08 51°14.154 2°55.4 335.1 8.4 332 10.8
2006-08-29 06:42:12 51°14.162 2°55.393 334.2 8.5 331 10.8
2006-08-29 06:42:18 51°14.174 2°55.381 332.5 8.5 329 10.7
2006-08-29 06:42:23 51°14.184 2°55.371 331 8.6 328 10.7
2006-08-29 06:42:28 51°14.194 2°55.36 330 8.6 326 10.8
2006-08-29 06:42:32 51°14.202 2°55.351 328.1 8.6 324 10.8
2006-08-29 06:42:38 51°14.213 2°55.337 326.3 8.7 323 10.8
2006-08-29 06:42:42 51°14.221 2°55.327 325 8.7 321 10.7
2006-08-29 06:42:48 51°14.232 2°55.312 323.2 8.7 320 10.7
2006-08-29 06:42:52 51°14.239 2°55.302 320.8 8.7 317 10.7
2006-08-29 06:42:57 51°14.247 2°55.288 319.1 8.7 316 10.8
2006-08-29 06:43:02 51°14.256 2°55.275 317.9 8.7 315 10.8
2006-08-29 06:43:08 51°14.266 2°55.258 317.1 8.8 314 10.7
2006-08-29 06:43:13 51°14.274 2°55.244 316.2 8.8 313 10.6
2006-08-29 06:43:18 51°14.282 2°55.229 315.3 8.7 311 10.8
2006-08-29 06:43:22 51°14.289 2°55.218 315 8.7 312 10.8
2006-08-29 06:43:28 51°14.298 2°55.2 314 8.7 310 10.8
2006-08-29 06:43:32 51°14.304 2°55.188 313.2 8.8 310 10.8
2006-08-29 06:43:38 51°14.314 2°55.17 312.9 8.7 309 10.6
2006-08-29 06:43:42 51°14.319 2°55.158 312.1 8.7 309 10.5
2006-08-29 06:43:48 51°14.328 2°55.139 310.8 8.8 307 10.8
2006-08-29 06:43:53 51°14.335 2°55.124 310.1 8.7 306 10.8
2006-08-29 06:43:58 51°14.342 2°55.109 309.6 8.8 306 10.9
2006-08-29 06:44:02 51°14.348 2°55.096 309.6 8.8 307 10.8
2006-08-29 06:44:07 51°14.355 2°55.081 310.6 8.8 308 10.9
2006-08-29 06:44:12 51°14.363 2°55.065 311.2 8.9 308 11.1
2006-08-29 06:44:18 51°14.372 2°55.046 311.2 9.1 308 11
2006-08-29 06:44:22 51°14.379 2°55.033 312.3 9.2 309 11.1
2006-08-29 06:44:28 51°14.39 2°55.015 314.7 9.3 312 11.3
2006-08-29 06:44:32 51°14.397 2°55.004 316.8 9.3 314 11.1
2006-08-29 06:44:38 51°14.409 2°54.986 319.5 9.5 317 11.4
2006-08-29 06:44:42 51°14.417 2°54.976 322.2 9.5 319 11.2
2006-08-29 06:44:48 51°14.428 2°54.96 323.7 9.6 320 11.3
2006-08-29 06:44:52 51°14.437 2°54.949 324.3 9.5 321 11.1
2006-08-29 06:44:58 51°14.45 2°54.934 326.6 9.6 324 10.8
2006-08-29 06:45:03 51°14.46 2°54.923 328.2 9.6 324 10.5
2006-08-29 06:45:08 51°14.472 2°54.911 330.4 9.3 327 10.5
2006-08-29 06:45:12 51°14.481 2°54.902 331.6 9.5 327 10.3
2006-08-29 06:45:18 51°14.495 2°54.888 332.8 9.7 329 10.4
2006-08-29 06:45:23 51°14.506 2°54.878 333.7 9.9 329 10.3
2006-08-29 06:45:28 51°14.517 2°54.866 332.8 9.7 328 10.1
2006-08-29 06:45:33 51°14.529 2°54.854 332.1 10.1 328 10.2
2006-08-29 06:45:38 51°14.54 2°54.843 332.4 9.8 328 -999
2006-08-29 06:45:43 51°14.552 2°54.831 333 10.1 329 9.9
2006-08-29 06:45:47 51°14.562 2°54.822 333.1 10.1 328 10
2006-08-29 06:45:53 51°14.577 2°54.807 333.3 10.2 330 9.9
2006-08-29 06:45:58 51°14.59 2°54.796 334.4 10.4 330 9.9
2006-08-29 06:46:02 51°14.6 2°54.786 334.5 10.5 330 10
2006-08-29 06:46:07 51°14.613 2°54.774 334.3 10.9 330 10
2006-08-29 06:46:12 51°14.627 2°54.762 333.7 11 329 9.8
2006-08-29 06:46:18 51°14.642 2°54.748 333.4 11 329 9.7
2006-08-29 06:46:22 51°14.653 2°54.738 333.1 11.1 330 9.9
2006-08-29 06:46:27 51°14.667 2°54.725 332.9 11.3 330 9.6
2006-08-29 06:46:32 51°14.679 2°54.713 333.4 11.2 329 9.7
2006-08-29 06:46:38 51°14.696 2°54.697 333.5 11.4 330 9.9
2006-08-29 06:46:42 51°14.707 2°54.687 332.8 11.4 329 9.8
2006-08-29 06:46:48 51°14.723 2°54.672 333.8 11.4 331 9.9
2006-08-29 06:46:53 51°14.737 2°54.659 333.3 11.4 329 9.8
2006-08-29 06:46:58 51°14.751 2°54.646 333.5 11.5 330 9.9
2006-08-29 06:47:02 51°14.761 2°54.636 333.1 11.4 328 9.8
2006-08-29 06:47:08 51°14.778 2°54.62 332 11.5 328 9.8
2006-08-29 06:47:12 51°14.789 2°54.609 332 11.5 329 9.8
2006-08-29 06:47:18 51°14.805 2°54.594 332.6 11.6 329 9.7
2006-08-29 06:47:22 51°14.817 2°54.583 333.5 11.6 330 9.7
2006-08-29 06:47:28 51°14.833 2°54.569 333.8 11.5 331 9.5
2006-08-29 06:47:32 51°14.845 2°54.558 333.1 11.5 329 9.8
2006-08-29 06:47:38 51°14.861 2°54.542 332.3 11.6 328 9.7
2006-08-29 06:47:42 51°14.871 2°54.531 331.7 11.4 328 9.4
2006-08-29 06:47:48 51°14.888 2°54.516 331.6 11.4 329 9.6
2006-08-29 06:47:51 51°14.895 2°54.508 331.6 11.5 328 9.5
2006-08-29 06:47:58 51°14.915 2°54.49 332.2 11.4 330 9.5
2006-08-29 06:48:03 51°14.928 2°54.477 332.4 11.4 329 9.4
2006-08-29 06:48:08 51°14.942 2°54.464 332.4 11.5 330 9.5
2006-08-29 06:48:12 51°14.952 2°54.454 333 11.3 330 9.3
2006-08-29 06:48:18 51°14.97 2°54.439 333.5 11.3 331 9.3
2006-08-29 06:48:22 51°14.981 2°54.429 333.4 11.4 330 9.1
2006-08-29 06:48:28 51°14.996 2°54.414 332.8 11.4 329 9
2006-08-29 06:48:32 51°15.007 2°54.404 332.4 11.3 329 9.2
2006-08-29 06:48:38 51°15.023 2°54.388 331.8 11.4 329 9.1
2006-08-29 06:48:42 51°15.034 2°54.377 331.5 11.4 328 9
2006-08-29 06:48:48 51°15.05 2°54.363 331.6 11.3 329 8.9
2006-08-29 06:48:52 51°15.062 2°54.353 332.4 11.4 330 9
2006-08-29 06:48:58 51°15.078 2°54.338 333.3 11.4 332 9.1
2006-08-29 06:49:02 51°15.089 2°54.328 333.4 11.5 330 9
2006-08-29 06:49:08 51°15.105 2°54.313 332.8 11.3 330 9
2006-08-29 06:49:12 51°15.116 2°54.303 332.3 11.3 330 9.2
2006-08-29 06:49:18 51°15.132 2°54.287 332 11.3 329 9.2
2006-08-29 06:49:22 51°15.143 2°54.276 331.6 11.4 328 9
2006-08-29 06:49:28 51°15.159 2°54.26 331.3 11.4 327 8.9
2006-08-29 06:49:32 51°15.169 2°54.25 331.4 11.1 329 9.3
2006-08-29 06:49:37 51°15.183 2°54.236 331 11.3 327 9.3
2006-08-29 06:49:42 51°15.196 2°54.223 331.4 11.3 329 9.2
2006-08-29 06:49:48 51°15.212 2°54.207 332.3 11.3 328 9.3
2006-08-29 06:49:52 51°15.222 2°54.197 332.4 11.2 328 9.5
2006-08-29 06:49:57 51°15.237 2°54.183 331.6 11.3 329 9.4
2006-08-29 06:50:02 51°15.249 2°54.171 332 11.3 329 9.4
2006-08-29 06:50:08 51°15.266 2°54.155 332.5 11.3 330 9.6
2006-08-29 06:50:13 51°15.279 2°54.142 332.3 11.4 328 9.6
2006-08-29 06:50:18 51°15.293 2°54.129 333.1 11.4 330 9.7
2006-08-29 06:50:22 51°15.304 2°54.12 333.6 11.4 330 9.9
2006-08-29 06:50:25 51°15.312 2°54.112 334.1 11.5 330 9.9
2006-08-29 06:50:33 51°15.334 2°54.092 333.8 11.4 329 9.8
2006-08-29 06:50:38 51°15.348 2°54.078 333 11.4 328 10
2006-08-29 06:50:41 51°15.356 2°54.07 332.9 11.4 329 10.1
2006-08-29 06:50:48 51°15.375 2°54.051 332.3 11.5 327 10.2
2006-08-29 06:50:52 51°15.386 2°54.04 332.3 11.5 328 10.1
2006-08-29 06:50:58 51°15.401 2°54.024 332.7 11.6 328 10.1
2006-08-29 06:51:03 51°15.415 2°54.012 332.7 11.5 329 10.2
2006-08-29 06:51:08 51°15.429 2°53.997 333 11.5 328 10.3
2006-08-29 06:51:13 51°15.443 2°53.985 332.3 11.5 328 10.3
2006-08-29 06:51:18 51°15.456 2°53.97 332.3 11.5 327 10.5
2006-08-29 06:51:22 51°15.467 2°53.96 332.4 11.5 330 10.3
2006-08-29 06:51:28 51°15.483 2°53.944 332.9 11.4 328 10.5
2006-08-29 06:51:33 51°15.497 2°53.931 333.7 11.4 331 10.5
2006-08-29 06:51:38 51°15.511 2°53.918 333.8 11.4 329 10.6
2006-08-29 06:51:43 51°15.524 2°53.906 334.3 11.4 330 10.5
2006-08-29 06:51:48 51°15.538 2°53.892 334.2 11.4 330 10.6
2006-08-29 06:51:53 51°15.551 2°53.88 334.5 11.4 330 10.6
2006-08-29 06:51:57 51°15.563 2°53.87 334.3 11.5 331 10.7
2006-08-29 06:52:02 51°15.576 2°53.858 334.2 11.5 330 10.7
2006-08-29 06:52:08 51°15.593 2°53.843 334.3 11.4 329 10.8
2006-08-29 06:52:12 51°15.604 2°53.832 333.6 11.4 330 10.9
2006-08-29 06:52:18 51°15.62 2°53.817 333.5 11.4 330 10.9
2006-08-29 06:52:22 51°15.631 2°53.807 334 11.3 330 10.8
2006-08-29 06:52:28 51°15.648 2°53.791 334.2 11.4 329 10.8
2006-08-29 06:52:32 51°15.659 2°53.781 333.8 11.5 329 11
2006-08-29 06:52:38 51°15.674 2°53.765 333.6 11.5 329 11
2006-08-29 06:52:42 51°15.684 2°53.755 332.7 11.4 328 11
2006-08-29 06:52:48 51°15.701 2°53.738 332.1 11.4 327 11.1
2006-08-29 06:52:52 51°15.711 2°53.727 331.9 11.4 327 11.2
2006-08-29 06:52:58 51°15.727 2°53.711 332.2 11.5 329 11.2
2006-08-29 06:53:02 51°15.738 2°53.701 333 11.4 329 11.3
2006-08-29 06:53:08 51°15.755 2°53.685 333.4 11.5 330 11.4
2006-08-29 06:53:12 51°15.766 2°53.674 333.7 11.6 330 11.5
2006-08-29 06:53:18 51°15.782 2°53.66 333.3 11.4 330 11.2
2006-08-29 06:53:23 51°15.796 2°53.649 335 11.4 333 11.2
2006-08-29 06:53:28 51°15.811 2°53.639 337.8 11.5 336 11.2
2006-08-29 06:53:33 51°15.826 2°53.629 340.4 11.5 337 11.2
2006-08-29 06:53:38 51°15.841 2°53.619 341.5 11.5 338 11.5
2006-08-29 06:53:43 51°15.856 2°53.61 342.5 11.6 339 11.6
2006-08-29 06:53:48 51°15.871 2°53.601 343.9 11.5 339 11.5
2006-08-29 06:53:53 51°15.886 2°53.594 344.8 11.6 343 11.5
2006-08-29 06:53:57 51°15.899 2°53.589 346.7 11.6 344 11.5
2006-08-29 06:54:02 51°15.913 2°53.582 347.7 11.4 345 11.5
2006-08-29 06:54:08 51°15.933 2°53.575 349.4 11.4 346 11.7
2006-08-29 06:54:12 51°15.945 2°53.571 350.8 11.4 348 11.4
2006-08-29 06:54:18 51°15.963 2°53.566 352.4 11.2 349 11.7
2006-08-29 06:54:22 51°15.975 2°53.563 354 11.2 351 11.7
2006-08-29 06:54:28 51°15.995 2°53.559 355 11.3 352 11.9
2006-08-29 06:54:33 51°16.009 2°53.556 355.9 11.2 353 11.7
2006-08-29 06:54:38 51°16.025 2°53.553 356.8 11.1 353 11.7
2006-08-29 06:54:42 51°16.038 2°53.551 357.1 11.3 354 11.9
2006-08-29 06:54:48 51°16.055 2°53.548 357.8 11.2 354 11.7
2006-08-29 06:54:53 51°16.072 2°53.546 358.3 11.2 355 11.9
2006-08-29 06:54:58 51°16.087 2°53.544 358.6 11.3 355 12
2006-08-29 06:55:02 51°16.1 2°53.542 359 11.4 356 11.9
2006-08-29 06:55:08 51°16.118 2°53.539 358.5 11.4 354 11.9
2006-08-29 06:55:13 51°16.134 2°53.537 357.8 11.3 354 11.9
2006-08-29 06:55:18 51°16.15 2°53.534 356.9 11.4 353 12
2006-08-29 06:55:21 51°16.159 2°53.531 356.1 11.4 352 12
2006-08-29 06:55:28 51°16.182 2°53.525 355.7 11.3 352 12
2006-08-29 06:55:33 51°16.196 2°53.521 355 11.4 350 11.9
2006-08-29 06:55:38 51°16.212 2°53.517 354.7 11.3 351 12
2006-08-29 06:55:42 51°16.224 2°53.514 354.4 11.4 350 12.1
2006-08-29 06:55:48 51°16.244 2°53.509 355 11.4 351 12.1
2006-08-29 06:55:53 51°16.259 2°53.505 355.5 11.5 352 12.2
2006-08-29 06:55:58 51°16.275 2°53.502 356.1 11.5 351 12.1
2006-08-29 06:56:03 51°16.291 2°53.498 355.6 11.6 351 12.3
2006-08-29 06:56:08 51°16.305 2°53.494 355.2 11.3 351 11.9
2006-08-29 06:56:12 51°16.318 2°53.491 355.2 11.3 351 11.9
2006-08-29 06:56:18 51°16.338 2°53.486 355.1 11.5 351 12
2006-08-29 06:56:22 51°16.35 2°53.483 355.6 11.5 352 12.1
2006-08-29 06:56:28 51°16.369 2°53.479 356.2 11.5 352 12.1
2006-08-29 06:56:33 51°16.385 2°53.475 356.3 11.5 351 12.1
2006-08-29 06:56:37 51°16.398 2°53.472 355.6 11.6 352 12.2
2006-08-29 06:56:43 51°16.416 2°53.468 355.2 11.5 353 12
2006-08-29 06:56:48 51°16.433 2°53.464 355.4 11.4 351 12
2006-08-29 06:56:53 51°16.449 2°53.461 355.5 11.6 352 11.9
2006-08-29 06:56:58 51°16.464 2°53.458 355.4 11.5 350 11.7
2006-08-29 06:57:02 51°16.476 2°53.455 355.6 11.4 353 11.6
2006-08-29 06:57:08 51°16.496 2°53.449 355.6 11.3 352 11.9
2006-08-29 06:57:13 51°16.511 2°53.446 355.9 11.5 353 12
2006-08-29 06:57:18 51°16.527 2°53.442 355.4 11.3 350 11.7
2006-08-29 06:57:22 51°16.539 2°53.439 354.8 11.4 351 11.7
2006-08-29 06:57:28 51°16.559 2°53.433 354.5 11.5 350 12
2006-08-29 06:57:33 51°16.574 2°53.43 354.9 11.5 352 11.8
2006-08-29 06:57:38 51°16.59 2°53.425 355.6 11.5 352 11.9
2006-08-29 06:57:42 51°16.603 2°53.423 355.1 11.6 353 12
2006-08-29 06:57:48 51°16.622 2°53.42 355.5 11.7 351 11.7
2006-08-29 06:57:53 51°16.637 2°53.416 355.9 11.7 352 11.7
2006-08-29 06:57:58 51°16.654 2°53.412 355.7 11.5 351 11.7
2006-08-29 06:58:03 51°16.67 2°53.408 355.6 11.5 352 11.7
2006-08-29 06:58:08 51°16.685 2°53.403 355.2 11.6 351 11.6
2006-08-29 06:58:13 51°16.701 2°53.399 354.3 11.6 351 11.5
2006-08-29 06:58:18 51°16.717 2°53.395 354.6 11.7 351 11.5
2006-08-29 06:58:22 51°16.729 2°53.391 354.4 11.7 350 11.4
2006-08-29 06:58:28 51°16.749 2°53.387 354.3 11.7 350 11.5
2006-08-29 06:58:32 51°16.763 2°53.383 353.7 11.8 350 11.6
2006-08-29 06:58:38 51°16.78 2°53.378 353.4 11.6 351 11.3
2006-08-29 06:58:42 51°16.793 2°53.375 354.3 11.6 351 11.4
2006-08-29 06:58:48 51°16.813 2°53.371 354.7 11.6 352 11.5
2006-08-29 06:58:53 51°16.828 2°53.367 355.4 11.6 352 11.4
2006-08-29 06:58:58 51°16.844 2°53.363 356.7 11.5 352 11.1
2006-08-29 06:59:02 51°16.857 2°53.36 356.2 11.5 352 10.9
2006-08-29 06:59:08 51°16.876 2°53.355 355.3 11.6 352 10.9
2006-08-29 06:59:12 51°16.888 2°53.352 355.2 11.5 351 10.1
2006-08-29 06:59:18 51°16.907 2°53.348 355.3 11.6 352 9.5
2006-08-29 06:59:22 51°16.919 2°53.344 354.9 11.5 350 9.1
2006-08-29 06:59:28 51°16.938 2°53.341 355 11.5 354 8.7
2006-08-29 06:59:33 51°16.955 2°53.336 355.5 11.4 349 8.7
2006-08-29 06:59:38 51°16.97 2°53.331 355.2 11.5 353 8.4
2006-08-29 06:59:42 51°16.982 2°53.328 354.2 11.3 349 8.3
2006-08-29 06:59:48 51°17.001 2°53.325 354.6 11.2 353 8.5
2006-08-29 06:59:53 51°17.015 2°53.32 355.6 11.4 350 8.5
2006-08-29 06:59:58 51°17.032 2°53.318 356.6 11.1 354 8.7
2006-08-29 07:00:02 51°17.044 2°53.316 356.7 11.1 353 8.7
2006-08-29 07:00:08 51°17.064 2°53.313 356.8 11.3 355 8.7
2006-08-29 07:00:12 51°17.076 2°53.312 358.3 11.2 358 8.8
2006-08-29 07:00:18 51°17.093 2°53.312 0.9 11.1 357 8.7
2006-08-29 07:00:23 51°17.109 2°53.311 1.7 11.3 359 8.8
2006-08-29 07:00:28 51°17.124 2°53.31 2.4 11.3 359 8.8
2006-08-29 07:00:33 51°17.141 2°53.31 2.9 11.4 358 9
2006-08-29 07:00:38 51°17.156 2°53.309 3.4 11.4 1 9.1
2006-08-29 07:00:42 51°17.168 2°53.309 3.7 11.3 -999 9
2006-08-29 07:00:48 51°17.188 2°53.308 3.3 11.3 358 9.2
2006-08-29 07:00:52 51°17.2 2°53.307 2.6 11.3 358 9.1
2006-08-29 07:00:58 51°17.22 2°53.307 1.7 11.3 -999 9.4
2006-08-29 07:01:03 51°17.234 2°53.307 2.8 11.2 359 9.2
2006-08-29 07:01:08 51°17.249 2°53.306 3.9 11.2 -999 9.2
2006-08-29 07:01:12 51°17.262 2°53.306 3.3 11.2 359 9.4
2006-08-29 07:01:18 51°17.281 2°53.306 3.1 11.3 -999 9.5
2006-08-29 07:01:23 51°17.297 2°53.307 2.9 11.3 -999 9.6
2006-08-29 07:01:28 51°17.313 2°53.306 4.4 11.3 -999 9.5
2006-08-29 07:01:33 51°17.328 2°53.31 5.7 11.5 4 9.6
2006-08-29 07:01:38 51°17.344 2°53.31 7.6 11.6 2 9.4
2006-08-29 07:01:42 51°17.357 2°53.312 8.3 11.5 6 9.5
2006-08-29 07:01:48 51°17.376 2°53.317 10.6 11.5 8 9.5
2006-08-29 07:01:53 51°17.392 2°53.323 13.7 11.5 13 9.7
2006-08-29 07:01:58 51°17.407 2°53.328 15.5 11.6 11 9.5
2006-08-29 07:02:01 51°17.417 2°53.333 18.8 11.7 16 9.5
2006-08-29 07:02:08 51°17.438 2°53.344 20.6 11.7 18 9.7
2006-08-29 07:02:13 51°17.454 2°53.353 23.2 11.7 21 9.9
2006-08-29 07:02:18 51°17.468 2°53.36 22.5 11.7 18 9.8
2006-08-29 07:02:23 51°17.483 2°53.37 24.1 11.6 23 9.5
2006-08-29 07:02:28 51°17.499 2°53.379 25.4 11.7 21 10.1
2006-08-29 07:02:32 51°17.51 2°53.387 25.9 11.7 23 9.7
2006-08-29 07:02:38 51°17.528 2°53.401 26.1 11.5 22 9.7
2006-08-29 07:02:43 51°17.543 2°53.41 27.5 11.7 24 10
2006-08-29 07:02:48 51°17.559 2°53.419 25.6 11.6 19 10.1
2006-08-29 07:02:52 51°17.571 2°53.428 27.3 11.7 25 10.1
2006-08-29 07:02:58 51°17.587 2°53.439 26.6 11.6 22 9.8
2006-08-29 07:03:03 51°17.603 2°53.449 27.5 11.5 24 9.8
2006-08-29 07:03:08 51°17.618 2°53.458 26.2 11.4 20 10
2006-08-29 07:03:12 51°17.629 2°53.467 26.2 11.5 23 10
2006-08-29 07:03:18 51°17.648 2°53.479 26.2 11.5 22 10.2
2006-08-29 07:03:22 51°17.659 2°53.488 27.1 11.5 26 9.9
2006-08-29 07:03:28 51°17.676 2°53.498 29 11.5 22 9.9
2006-08-29 07:03:33 51°17.692 2°53.509 26.6 11.3 21 10
2006-08-29 07:03:38 51°17.706 2°53.519 26.8 11.5 25 10
2006-08-29 07:03:42 51°17.718 2°53.528 27.5 11.6 23 9.9
2006-08-29 07:03:48 51°17.735 2°53.54 27.7 11.6 26 9.7
2006-08-29 07:03:53 51°17.749 2°53.549 27.7 11.6 22 9.8
2006-08-29 07:03:58 51°17.764 2°53.561 27.6 11.5 26 10
2006-08-29 07:04:02 51°17.775 2°53.569 28.6 11.6 24 10
2006-08-29 07:04:08 51°17.793 2°53.583 29.2 11.6 25 10.2
2006-08-29 07:04:13 51°17.808 2°53.594 30.2 11.6 25 10.2
2006-08-29 07:04:18 51°17.823 2°53.604 29.4 11.6 24 10.3
2006-08-29 07:04:22 51°17.834 2°53.614 30.8 11.6 28 10.2
2006-08-29 07:04:27 51°17.847 2°53.623 29.8 11.3 24 10.2
2006-08-29 07:04:32 51°17.862 2°53.636 28.8 11.4 27 10
2006-08-29 07:04:38 51°17.88 2°53.648 29.8 11.6 23 10.1
2006-08-29 07:04:42 51°17.892 2°53.655 28.4 11.4 23 10.1
2006-08-29 07:04:47 51°17.906 2°53.666 29.3 11.6 25 10.2
2006-08-29 07:04:53 51°17.924 2°53.679 27.3 11.5 22 10.3
2006-08-29 07:04:58 51°17.939 2°53.688 28.1 11.5 24 10.5
2006-08-29 07:05:03 51°17.953 2°53.698 28.3 11.6 24 10.5
2006-08-29 07:05:08 51°17.967 2°53.709 29 11.6 27 10.3
2006-08-29 07:05:13 51°17.982 2°53.72 29.7 11.5 25 10.3
2006-08-29 07:05:18 51°17.997 2°53.732 29.2 11.4 24 10.4
2006-08-29 07:05:21 51°18.005 2°53.735 27.7 11.5 23 10.6
2006-08-29 07:05:28 51°18.026 2°53.749 28.4 11.7 24 10.4
2006-08-29 07:05:32 51°18.037 2°53.758 26.1 11.5 22 10.3
2006-08-29 07:05:38 51°18.055 2°53.769 26.2 11.4 23 10.2
2006-08-29 07:05:42 51°18.066 2°53.776 27.6 11.2 23 10.1
2006-08-29 07:05:47 51°18.081 2°53.788 27.1 11.1 25 10.3
2006-08-29 07:05:52 51°18.096 2°53.798 28.2 11.2 24 10.3
2006-08-29 07:05:58 51°18.113 2°53.81 27.8 11.2 23 10.3
2006-08-29 07:06:02 51°18.124 2°53.817 27.9 11.2 24 10.3
2006-08-29 07:06:08 51°18.142 2°53.83 27.6 11.4 22 10.7
2006-08-29 07:06:13 51°18.156 2°53.84 28.6 11.4 23 10.8
2006-08-29 07:06:18 51°18.172 2°53.85 29 11.4 25 11
2006-08-29 07:06:22 51°18.183 2°53.86 27.6 11.5 24 10.9
2006-08-29 07:06:28 51°18.199 2°53.871 28.7 11.6 25 10.6
2006-08-29 07:06:33 51°18.214 2°53.88 28.2 11.5 23 10.7
2006-08-29 07:06:37 51°18.225 2°53.889 28.9 11.5 24 10.7
2006-08-29 07:06:42 51°18.241 2°53.899 28.6 11.5 22 10.5
2006-08-29 07:06:48 51°18.258 2°53.911 27.3 11.2 23 10.6
2006-08-29 07:06:53 51°18.273 2°53.923 28.2 11.3 22 10.4
2006-08-29 07:06:58 51°18.288 2°53.93 26.3 11.5 20 10.6
2006-08-29 07:07:02 51°18.3 2°53.936 25.5 11.4 20 10.4
2006-08-29 07:07:08 51°18.317 2°53.948 26.7 11.3 24 10.6
2006-08-29 07:07:12 51°18.328 2°53.956 26.1 11.4 22 10.6
2006-08-29 07:07:18 51°18.346 2°53.97 27.7 11.4 24 10.9
2006-08-29 07:07:23 51°18.361 2°53.979 28.8 11.4 24 11.1
2006-08-29 07:07:28 51°18.375 2°53.989 27.5 11.4 24 10.8
2006-08-29 07:07:33 51°18.39 2°53.997 27.5 11.4 21 10.8
2006-08-29 07:07:38 51°18.404 2°54.009 26.8 11.3 24 10.9
2006-08-29 07:07:43 51°18.42 2°54.018 26.8 11.5 21 11.1
2006-08-29 07:07:48 51°18.434 2°54.028 27.8 11.6 24 11.1
2006-08-29 07:07:53 51°18.448 2°54.037 28.3 11.3 22 11.1
2006-08-29 07:07:57 51°18.459 2°54.047 29.4 11.3 27 11.2
2006-08-29 07:08:02 51°18.474 2°54.059 30 11.5 26 11.2
2006-08-29 07:08:08 51°18.492 2°54.072 30.2 11.5 26 11.2
2006-08-29 07:08:13 51°18.506 2°54.082 31.2 11.6 27 11.1
2006-08-29 07:08:18 51°18.52 2°54.094 30 11.5 24 11
2006-08-29 07:08:22 51°18.532 2°54.104 30.9 11.6 26 11.2
2006-08-29 07:08:28 51°18.548 2°54.114 30.3 11.5 24 10.9
2006-08-29 07:08:33 51°18.562 2°54.128 29.4 11.1 26 10.7
2006-08-29 07:08:38 51°18.578 2°54.14 31.2 11.1 27 10.8
2006-08-29 07:08:42 51°18.589 2°54.149 31.1 11.3 28 11
2006-08-29 07:08:48 51°18.604 2°54.16 30.1 11.2 24 10.7
2006-08-29 07:08:53 51°18.618 2°54.171 31 11.2 28 10.9
2006-08-29 07:08:58 51°18.633 2°54.182 32.4 11.3 25 11.2
2006-08-29 07:09:02 51°18.643 2°54.191 30.4 11.2 27 11.6
2006-08-29 07:09:08 51°18.66 2°54.205 31 11.3 28 11.5
2006-08-29 07:09:13 51°18.675 2°54.216 31.8 11.6 25 11.7
2006-08-29 07:09:18 51°18.688 2°54.226 31.6 11.4 27 11.6
2006-08-29 07:09:22 51°18.7 2°54.235 31.7 11.4 27 11.7
2006-08-29 07:09:28 51°18.717 2°54.248 30.5 11.6 26 11.7
2006-08-29 07:09:32 51°18.729 2°54.257 30.2 11.4 24 11.6
2006-08-29 07:09:38 51°18.745 2°54.27 31.1 11.3 27 11.5
2006-08-29 07:09:41 51°18.754 2°54.276 30.2 11.3 25 11.6
2006-08-29 07:09:48 51°18.774 2°54.293 29.7 11.4 26 11.4
2006-08-29 07:09:52 51°18.785 2°54.302 32.5 11.3 28 11.3
2006-08-29 07:09:58 51°18.803 2°54.314 30.3 11.5 24 11.4
2006-08-29 07:10:03 51°18.816 2°54.325 29.7 11.4 27 11.6
2006-08-29 07:10:08 51°18.83 2°54.337 31.9 11.4 28 11.4
2006-08-29 07:10:12 51°18.841 2°54.347 33.3 11.5 28 11.5
2006-08-29 07:10:18 51°18.858 2°54.362 33.5 11.5 28 11.5
2006-08-29 07:10:23 51°18.872 2°54.375 32.6 11.3 28 11.6
2006-08-29 07:10:28 51°18.886 2°54.386 33.5 11.5 28 11.6
2006-08-29 07:10:33 51°18.901 2°54.399 33.3 11.4 29 11.7
2006-08-29 07:10:38 51°18.914 2°54.411 32.9 11.4 28 11.7
2006-08-29 07:10:42 51°18.925 2°54.422 35.9 11.5 34 11.8
2006-08-29 07:10:47 51°18.939 2°54.435 33.8 11.6 29 11.7
2006-08-29 07:10:53 51°18.955 2°54.448 35.1 11.5 30 11.7
2006-08-29 07:10:58 51°18.969 2°54.462 35.2 11.5 31 11.8
2006-08-29 07:11:02 51°18.98 2°54.472 34.8 11.5 29 11.8
2006-08-29 07:11:07 51°18.993 2°54.487 37 11.6 35 11.9
2006-08-29 07:11:12 51°19.006 2°54.5 36.8 11.4 32 11.8
2006-08-29 07:11:18 51°19.022 2°54.518 38.6 11.6 36 11.7
2006-08-29 07:11:23 51°19.035 2°54.532 40.1 11.4 34 11.7
2006-08-29 07:11:27 51°19.046 2°54.544 40.5 11.4 36 11.6
2006-08-29 07:11:32 51°19.058 2°54.558 40.3 11.3 35 11.8
2006-08-29 07:11:38 51°19.074 2°54.577 39.8 11.4 36 11.9
2006-08-29 07:11:43 51°19.086 2°54.591 39 11.4 33 11.9
2006-08-29 07:11:48 51°19.099 2°54.605 40 11.3 36 11.8
2006-08-29 07:11:52 51°19.109 2°54.618 39.5 11.2 37 11.7
2006-08-29 07:11:58 51°19.125 2°54.636 40 11.2 35 11.9
2006-08-29 07:12:02 51°19.135 2°54.647 40.5 11.1 36 11.9
2006-08-29 07:12:08 51°19.15 2°54.666 42.6 11.3 40 11.8
2006-08-29 07:12:12 51°19.161 2°54.677 40.3 11.5 34 11.9
2006-08-29 07:12:18 51°19.176 2°54.695 40.2 11.2 38 12
2006-08-29 07:12:23 51°19.188 2°54.71 40 11.4 38 11.9
2006-08-29 07:12:28 51°19.202 2°54.724 42 11.7 35 11.8
2006-08-29 07:12:33 51°19.214 2°54.74 40.7 11.6 38 12.2
2006-08-29 07:12:38 51°19.227 2°54.754 41.3 11.4 36 12
2006-08-29 07:12:42 51°19.236 2°54.768 42.5 11.5 39 11.8
2006-08-29 07:12:48 51°19.252 2°54.786 41.2 11.5 35 11.9
2006-08-29 07:12:53 51°19.264 2°54.8 41.9 11.3 39 12.2
2006-08-29 07:12:58 51°19.277 2°54.816 41.3 11.3 36 12.2
2006-08-29 07:13:02 51°19.287 2°54.828 41.8 11.5 38 12.3
2006-08-29 07:13:08 51°19.302 2°54.845 41.5 11.4 37 12.4
2006-08-29 07:13:12 51°19.312 2°54.858 41.3 11.3 38 12.2
2006-08-29 07:13:18 51°19.327 2°54.876 41.7 11.5 36 12.2
2006-08-29 07:13:22 51°19.338 2°54.89 41.6 11.5 39 12.2
2006-08-29 07:13:28 51°19.353 2°54.907 42.8 11.5 36 12.1
2006-08-29 07:13:32 51°19.363 2°54.92 41.7 11.4 38 12.5
2006-08-29 07:13:38 51°19.378 2°54.937 41.1 11.4 35 12.2
2006-08-29 07:13:43 51°19.392 2°54.954 41.6 11.5 38 12.3
2006-08-29 07:13:48 51°19.404 2°54.966 41.3 11.5 35 12.4
2006-08-29 07:13:53 51°19.416 2°54.983 39.8 11.3 35 12.1
2006-08-29 07:13:58 51°19.43 2°54.997 41.9 11.4 38 12.2
2006-08-29 07:14:02 51°19.44 2°55.01 40.3 11.6 36 12.2
2006-08-29 07:14:08 51°19.456 2°55.026 41.3 11.6 36 12.3
2006-08-29 07:14:13 51°19.468 2°55.043 40.1 11.6 33 12.1
2006-08-29 07:14:18 51°19.481 2°55.057 40.5 11.4 36 12.1
2006-08-29 07:14:22 51°19.492 2°55.07 41.2 11.5 35 12.1
2006-08-29 07:14:28 51°19.507 2°55.087 42.2 11.6 41 12.2
2006-08-29 07:14:33 51°19.52 2°55.103 39.9 11.4 34 12.3
2006-08-29 07:14:37 51°19.531 2°55.115 41.8 11.6 36 12.1
2006-08-29 07:14:43 51°19.546 2°55.132 40.5 11.6 35 12.5
2006-08-29 07:14:48 51°19.559 2°55.146 39.7 11.5 36 12.3
2006-08-29 07:14:53 51°19.571 2°55.162 40.8 11.6 37 12.3
2006-08-29 07:14:58 51°19.584 2°55.176 39.9 11.5 34 12.1
2006-08-29 07:15:02 51°19.595 2°55.187 40.8 11.4 34 12
2006-08-29 07:15:07 51°19.608 2°55.202 40.3 11.3 35 11.8
2006-08-29 07:15:13 51°19.623 2°55.221 39.4 11.3 36 11.9
2006-08-29 07:15:18 51°19.637 2°55.236 40.2 11.4 35 12.1
2006-08-29 07:15:22 51°19.646 2°55.248 40.4 11.4 37 12.4
2006-08-29 07:15:28 51°19.662 2°55.265 39.7 11.5 34 12.5
2006-08-29 07:15:33 51°19.676 2°55.279 41.1 11.7 37 12.4
2006-08-29 07:15:38 51°19.688 2°55.294 39.8 11.6 34 12.4
2006-08-29 07:15:42 51°19.699 2°55.307 40.5 11.5 37 12.5
2006-08-29 07:15:48 51°19.715 2°55.325 39.9 11.6 35 12.6
2006-08-29 07:15:53 51°19.729 2°55.339 40.6 11.7 35 12.6
2006-08-29 07:15:58 51°19.741 2°55.354 38.8 11.5 35 12.4
2006-08-29 07:16:03 51°19.755 2°55.368 41 11.8 36 12.6
2006-08-29 07:16:08 51°19.767 2°55.383 40.2 11.6 35 12.7
2006-08-29 07:16:12 51°19.778 2°55.397 41.3 11.6 39 12.5
2006-08-29 07:16:18 51°19.793 2°55.414 42.4 11.8 36 12.2
2006-08-29 07:16:22 51°19.803 2°55.429 43.5 11.6 42 12.3
2006-08-29 07:16:28 51°19.817 2°55.446 42 11.4 35 12.2
2006-08-29 07:16:33 51°19.83 2°55.462 43.9 11.5 39 12.1
2006-08-29 07:16:38 51°19.841 2°55.479 43.9 11.4 40 11.9
2006-08-29 07:16:42 51°19.851 2°55.492 43.7 11.2 41 11.9
2006-08-29 07:16:48 51°19.865 2°55.513 46.2 11.4 42 11.9
2006-08-29 07:16:53 51°19.877 2°55.53 45.2 11.3 42 11.9
2006-08-29 07:16:57 51°19.887 2°55.542 44.7 11.5 39 12.3
2006-08-29 07:17:02 51°19.9 2°55.557 43.6 11.4 38 12.4
2006-08-29 07:17:07 51°19.912 2°55.574 44.8 11.5 41 12.6
2006-08-29 07:17:13 51°19.926 2°55.592 44.6 11.6 38 12.8
2006-08-29 07:17:18 51°19.939 2°55.607 44.1 11.5 39 12.9
2006-08-29 07:17:23 51°19.951 2°55.624 43.6 11.5 40 13
2006-08-29 07:17:28 51°19.963 2°55.64 44.8 11.6 41 12.8
2006-08-29 07:17:33 51°19.975 2°55.657 44.6 11.5 41 12.6
2006-08-29 07:17:38 51°19.987 2°55.675 43.9 11.3 42 12.6
2006-08-29 07:17:42 51°19.996 2°55.687 44.7 11.3 41 12.5
2006-08-29 07:17:48 51°20.011 2°55.708 44.9 11.4 41 12.5
2006-08-29 07:17:52 51°20.022 2°55.721 44.9 11.7 39 12.7
2006-08-29 07:17:58 51°20.035 2°55.739 43.8 11.5 40 12.1
2006-08-29 07:18:02 51°20.044 2°55.752 45.3 11.2 41 12.1
2006-08-29 07:18:08 51°20.059 2°55.773 45.4 11.3 41 12.4
2006-08-29 07:18:12 51°20.069 2°55.785 45.3 11.3 39 12.6
2006-08-29 07:18:18 51°20.084 2°55.806 45.3 11.4 43 12.8
2006-08-29 07:18:23 51°20.096 2°55.821 44.2 11.5 38 12.7
2006-08-29 07:18:28 51°20.107 2°55.839 43.9 11.3 42 12.8
2006-08-29 07:18:32 51°20.117 2°55.852 45.5 11.4 41 12.8
2006-08-29 07:18:38 51°20.131 2°55.871 44.4 11.6 40 12.7
2006-08-29 07:18:43 51°20.144 2°55.886 44.3 11.4 39 12.5
2006-08-29 07:18:48 51°20.155 2°55.903 46.2 11.3 43 12.4
2006-08-29 07:18:52 51°20.165 2°55.916 44.9 11.5 39 12.4
2006-08-29 07:18:58 51°20.181 2°55.934 45 11.5 38 12.9
2006-08-29 07:19:02 51°20.19 2°55.949 44.3 11.3 42 12.8
2006-08-29 07:19:08 51°20.205 2°55.969 44.9 11.6 39 12.9
2006-08-29 07:19:13 51°20.216 2°55.983 44.7 11.6 39 12.8
2006-08-29 07:19:18 51°20.229 2°55.999 43.3 11.2 37 12.6
2006-08-29 07:19:23 51°20.242 2°56.017 43.6 11.3 41 12.8
2006-08-29 07:19:28 51°20.254 2°56.031 43.3 11.6 36 12.8
2006-08-29 07:19:33 51°20.267 2°56.046 43.6 11.5 38 12.8
2006-08-29 07:19:38 51°20.279 2°56.062 45.3 11.6 42 13
2006-08-29 07:19:42 51°20.289 2°56.076 42.7 11.6 36 12.6
2006-08-29 07:19:47 51°20.3 2°56.091 44.8 11.3 40 12.7
2006-08-29 07:19:53 51°20.316 2°56.11 43.7 11.2 38 12.6
2006-08-29 07:19:58 51°20.327 2°56.127 43.9 11.4 40 12.4
2006-08-29 07:20:02 51°20.337 2°56.138 44.3 11.4 40 12.8
2006-08-29 07:20:07 51°20.349 2°56.157 42.5 11.2 42 12.8
2006-08-29 07:20:12 51°20.361 2°56.172 46.2 11.5 40 12.7
2006-08-29 07:20:18 51°20.375 2°56.193 44.8 11.4 38 12.8
2006-08-29 07:20:23 51°20.387 2°56.209 48.7 11.3 44 12.8
2006-08-29 07:20:27 51°20.396 2°56.223 47.3 11.3 42 12.8
2006-08-29 07:20:32 51°20.407 2°56.24 50 11.3 47 12.7
2006-08-29 07:20:38 51°20.421 2°56.262 50 11.4 44 12.7
2006-08-29 07:20:43 51°20.431 2°56.281 49.2 11.2 44 12.8
2006-08-29 07:20:48 51°20.442 2°56.3 52.3 11.5 48 12.9
2006-08-29 07:20:52 51°20.452 2°56.312 49.4 11.4 41 12.8
2006-08-29 07:20:58 51°20.463 2°56.335 52.7 11.2 51 12.7
2006-08-29 07:21:02 51°20.472 2°56.35 52.3 11.2 47 12.6
2006-08-29 07:21:08 51°20.484 2°56.373 51.5 11.2 47 12.7
2006-08-29 07:21:12 51°20.492 2°56.388 53.3 11.3 50 12.6
2006-08-29 07:21:18 51°20.505 2°56.409 53.2 11.4 46 12.7
2006-08-29 07:21:23 51°20.515 2°56.429 53.5 11.2 50 12.7
2006-08-29 07:21:28 51°20.526 2°56.448 52.9 11.4 46 12.8
2006-08-29 07:21:33 51°20.537 2°56.466 53.1 11.3 49 13
2006-08-29 07:21:38 51°20.547 2°56.485 53.7 11.4 50 12.9
2006-08-29 07:21:42 51°20.556 2°56.499 52.4 11.3 45 12.8
2006-08-29 07:21:48 51°20.568 2°56.522 51.7 11.4 48 12.8
2006-08-29 07:21:53 51°20.579 2°56.541 52.2 11.4 46 12.6
2006-08-29 07:21:58 51°20.59 2°56.559 51.5 11.4 45 12.6
2006-08-29 07:22:02 51°20.599 2°56.573 53 11.4 48 12.7
2006-08-29 07:22:08 51°20.612 2°56.596 52.2 11.3 48 12.6
2006-08-29 07:22:12 51°20.62 2°56.61 50.8 11.2 46 12.6
2006-08-29 07:22:18 51°20.633 2°56.634 52 11.3 49 12.7
2006-08-29 07:22:22 51°20.642 2°56.648 52.2 11.5 44 12.9
2006-08-29 07:22:28 51°20.654 2°56.67 52.8 11.4 50 12.8
2006-08-29 07:22:33 51°20.665 2°56.689 51.7 11.2 46 13.1
2006-08-29 07:22:38 51°20.675 2°56.709 53.1 11.5 53 13.1
2006-08-29 07:22:42 51°20.684 2°56.724 53.1 11.4 47 12.7
2006-08-29 07:22:48 51°20.695 2°56.746 54.2 11.3 52 12.7
2006-08-29 07:22:53 51°20.706 2°56.763 54.1 11.4 46 12.6
2006-08-29 07:22:58 51°20.716 2°56.784 52.8 11.4 48 12.7
2006-08-29 07:23:02 51°20.725 2°56.798 53.8 11.3 48 13
2006-08-29 07:23:08 51°20.737 2°56.82 54.4 11.1 49 13.1
2006-08-29 07:23:12 51°20.745 2°56.837 54.2 11.5 50 13.2
2006-08-29 07:23:17 51°20.756 2°56.855 54.1 11.3 48 13
2006-08-29 07:23:22 51°20.766 2°56.874 54 11.4 50 13.1
2006-08-29 07:23:28 51°20.779 2°56.896 53.5 11.4 50 13
2006-08-29 07:23:33 51°20.788 2°56.916 52.9 11.2 50 12.9
2006-08-29 07:23:38 51°20.799 2°56.934 55 11.3 49 12.8
2006-08-29 07:23:42 51°20.806 2°56.95 53.9 11.2 49 12.7
2006-08-29 07:23:47 51°20.817 2°56.968 54.1 11.3 48 12.9
2006-08-29 07:23:53 51°20.829 2°56.993 54.7 11.4 50 12.9
2006-08-29 07:23:58 51°20.84 2°57.012 53.7 11.3 48 13
2006-08-29 07:24:02 51°20.848 2°57.028 55.2 11.4 50 12.9
2006-08-29 07:24:08 51°20.862 2°57.049 54.8 11.5 45 13
2006-08-29 07:24:12 51°20.869 2°57.065 53.3 11.4 51 12.8
2006-08-29 07:24:17 51°20.879 2°57.084 55 11.5 50 12.6
2006-08-29 07:24:22 51°20.89 2°57.103 54.4 11.5 47 12.7
2006-08-29 07:24:27 51°20.9 2°57.123 52 11.2 48 12.8
2006-08-29 07:24:33 51°20.913 2°57.146 55.1 11.5 50 12.8
2006-08-29 07:24:38 51°20.924 2°57.164 51.4 11.4 44 12.8
2006-08-29 07:24:41 51°20.93 2°57.176 52.5 11.2 51 12.8
2006-08-29 07:24:48 51°20.946 2°57.2 53.1 11.3 49 12.6
2006-08-29 07:24:53 51°20.956 2°57.22 52.2 11.4 50 12.7
2006-08-29 07:24:58 51°20.966 2°57.239 52.4 11.5 46 12.7
2006-08-29 07:25:02 51°20.975 2°57.254 53.2 11.6 49 12.8
2006-08-29 07:25:07 51°20.986 2°57.273 53.7 11.6 48 12.9
2006-08-29 07:25:13 51°20.999 2°57.295 52.9 11.4 47 13
2006-08-29 07:25:18 51°21.009 2°57.315 53.3 11.5 50 12.9
2006-08-29 07:25:23 51°21.02 2°57.334 53.6 11.7 46 12.8
2006-08-29 07:25:28 51°21.03 2°57.355 53.6 11.3 53 13
2006-08-29 07:25:32 51°21.037 2°57.371 53.7 11.4 52 12.7
2006-08-29 07:25:37 51°21.048 2°57.389 53.5 11.3 51 12.3
2006-08-29 07:25:42 51°21.058 2°57.406 55.4 11.2 48 12.2
2006-08-29 07:25:48 51°21.07 2°57.429 52.4 11.1 47 12.5
2006-08-29 07:25:52 51°21.079 2°57.443 53.8 11.3 49 12.8
2006-08-29 07:25:58 51°21.091 2°57.465 52.7 11.3 46 13
2006-08-29 07:26:01 51°21.097 2°57.476 52.9 11.1 48 13.2
2006-08-29 07:26:08 51°21.111 2°57.502 54.1 11.1 50 13.1
2006-08-29 07:26:13 51°21.121 2°57.523 55.5 11.5 53 13.2
2006-08-29 07:26:18 51°21.132 2°57.541 54.2 11.4 46 13.2
2006-08-29 07:26:23 51°21.141 2°57.562 55.3 11.4 54 13.1
2006-08-29 07:26:28 51°21.153 2°57.579 55.7 11.6 45 13.1
2006-08-29 07:26:33 51°21.162 2°57.6 52.8 11.2 48 13.1
2006-08-29 07:26:38 51°21.172 2°57.618 55.4 11.5 51 12.9
2006-08-29 07:26:42 51°21.181 2°57.633 54.3 11.3 47 12.9
2006-08-29 07:26:48 51°21.193 2°57.657 55.8 11.6 54 13.1
2006-08-29 07:26:53 51°21.203 2°57.676 53.9 11.6 46 12.7
2006-08-29 07:26:58 51°21.214 2°57.696 55.1 11.3 51 13
2006-08-29 07:27:02 51°21.221 2°57.712 55.1 11.3 49 12.9
2006-08-29 07:27:08 51°21.233 2°57.735 55.3 11.5 50 12.8
2006-08-29 07:27:12 51°21.242 2°57.749 56.3 11.4 52 12.9
2006-08-29 07:27:18 51°21.254 2°57.774 55.3 11.3 50 12.9
2006-08-29 07:27:21 51°21.259 2°57.785 54.9 11.3 51 13.1
2006-08-29 07:27:28 51°21.273 2°57.811 54.5 11.5 51 12.9
2006-08-29 07:27:33 51°21.284 2°57.83 55.3 11.2 48 12.8
2006-08-29 07:27:38 51°21.294 2°57.851 55.8 11.3 52 12.9
2006-08-29 07:27:42 51°21.303 2°57.865 52.5 11.3 45 12.9
2006-08-29 07:27:48 51°21.314 2°57.889 53.7 11.3 51 12.8
2006-08-29 07:27:52 51°21.323 2°57.903 55.1 11.3 47 12.9
2006-08-29 07:27:58 51°21.335 2°57.928 54.5 11.3 54 12.9
2006-08-29 07:28:03 51°21.345 2°57.946 53.9 11.4 47 13.1
2006-08-29 07:28:08 51°21.355 2°57.966 55.6 11.4 54 13.1
2006-08-29 07:28:12 51°21.364 2°57.981 55.3 11.5 48 13
2006-08-29 07:28:18 51°21.375 2°58.004 53.8 11.4 50 13
2006-08-29 07:28:22 51°21.383 2°58.02 55.2 11.3 51 13.1
2006-08-29 07:28:28 51°21.396 2°58.042 54.4 11.4 50 13
2006-08-29 07:28:33 51°21.405 2°58.062 55.1 11.5 52 12.9
2006-08-29 07:28:38 51°21.417 2°58.081 54.1 11.4 46 12.9
2006-08-29 07:28:42 51°21.424 2°58.097 54.5 11.4 52 12.9
2006-08-29 07:28:48 51°21.437 2°58.119 53.4 11.4 47 13
2006-08-29 07:28:53 51°21.447 2°58.14 54.2 11.4 53 13.1
2006-08-29 07:28:58 51°21.458 2°58.158 53.7 11.4 46 13.2
2006-08-29 07:29:02 51°21.466 2°58.175 53.8 11.6 53 13.1
2006-08-29 07:29:07 51°21.477 2°58.192 53.4 11.4 47 12.8
2006-08-29 07:29:13 51°21.488 2°58.216 55.1 11.4 53 12.8
2006-08-29 07:29:18 51°21.499 2°58.235 55.1 11.4 48 12.9
2006-08-29 07:29:22 51°21.507 2°58.251 54.7 11.4 51 13
2006-08-29 07:29:28 51°21.519 2°58.273 55.1 11.5 49 13.1
2006-08-29 07:29:32 51°21.527 2°58.289 55.4 11.4 51 13
2006-08-29 07:29:38 51°21.539 2°58.315 56.4 11.5 54 13.2
2006-08-29 07:29:43 51°21.549 2°58.333 55.1 11.4 46 13
2006-08-29 07:29:48 51°21.559 2°58.353 55.4 11.4 53 13
2006-08-29 07:29:52 51°21.568 2°58.367 53.7 11.5 46 13
2006-08-29 07:29:58 51°21.581 2°58.39 53.3 11.4 49 12.9
2006-08-29 07:30:03 51°21.592 2°58.408 53.6 11.6 49 12.9
2006-08-29 07:30:08 51°21.602 2°58.427 52.2 11.3 48 12.9
2006-08-29 07:30:12 51°21.611 2°58.443 53.2 11.6 49 12.9
2006-08-29 07:30:18 51°21.624 2°58.464 52 11.7 44 12.7
2006-08-29 07:30:23 51°21.634 2°58.483 52.6 11.3 48 12.7
2006-08-29 07:30:28 51°21.646 2°58.5 52.1 11.5 42 12.6
2006-08-29 07:30:33 51°21.657 2°58.518 50.8 11.2 46 12.6
2006-08-29 07:30:38 51°21.669 2°58.536 49.3 11.4 43 12.6
2006-08-29 07:30:42 51°21.678 2°58.548 48 11.3 41 12.7
2006-08-29 07:30:48 51°21.692 2°58.57 49 11.6 47 12.8
2006-08-29 07:30:52 51°21.703 2°58.581 45.7 11.3 35 12.5
2006-08-29 07:30:58 51°21.715 2°58.603 46.9 11.3 46 12.4
2006-08-29 07:31:02 51°21.726 2°58.614 46.5 11.4 38 12.5
2006-08-29 07:31:08 51°21.739 2°58.638 48.1 11.1 48 12.5
2006-08-29 07:31:13 51°21.75 2°58.652 47.7 11.3 40 12.7
2006-08-29 07:31:18 51°21.761 2°58.671 47.7 11.2 46 12.8
2006-08-29 07:31:23 51°21.773 2°58.688 48.6 11.4 43 13
2006-08-29 07:31:28 51°21.784 2°58.704 46.9 11.3 40 13
2006-08-29 07:31:33 51°21.796 2°58.722 47.2 11.3 44 13.1
2006-08-29 07:31:38 51°21.807 2°58.74 46.9 11.3 44 13.2
2006-08-29 07:31:43 51°21.819 2°58.756 46.7 11.3 42 13.2
2006-08-29 07:31:48 51°21.831 2°58.774 48.5 11.5 46 13.1
2006-08-29 07:31:52 51°21.84 2°58.787 46.9 11.5 40 13.1
2006-08-29 07:31:58 51°21.853 2°58.81 47.9 11.3 46 13.1
2006-08-29 07:32:02 51°21.863 2°58.821 48.5 11.5 41 13.1
2006-08-29 07:32:08 51°21.877 2°58.843 46.3 11.2 43 13
2006-08-29 07:32:12 51°21.887 2°58.856 48.6 11.5 43 12.9
2006-08-29 07:32:18 51°21.9 2°58.876 46.8 11.5 42 13
2006-08-29 07:32:23 51°21.912 2°58.894 47.7 11.4 45 13
2006-08-29 07:32:28 51°21.923 2°58.912 47.9 11.6 43 13
2006-08-29 07:32:31 51°21.931 2°58.922 49.1 11.5 44 13
2006-08-29 07:32:38 51°21.946 2°58.947 48 11.4 45 13
2006-08-29 07:32:43 51°21.958 2°58.962 47.6 11.4 40 13
2006-08-29 07:32:48 51°21.97 2°58.982 49 11.6 47 13.1
2006-08-29 07:32:53 51°21.981 2°58.996 48 11.6 41 12.7
2006-08-29 07:32:58 51°21.992 2°59.016 48.4 11.5 47 12.5
2006-08-29 07:33:02 51°22.003 2°59.029 48 11.6 41 12.6
2006-08-29 07:33:08 51°22.015 2°59.051 47.8 11.3 45 12.6
2006-08-29 07:33:12 51°22.026 2°59.063 47.5 11.5 40 12.6
2006-08-29 07:33:18 51°22.039 2°59.085 48.4 11.5 45 12.8
2006-08-29 07:33:23 51°22.051 2°59.104 49.5 11.5 47 12.9
2006-08-29 07:33:28 51°22.062 2°59.121 48.2 11.4 43 12.9
2006-08-29 07:33:33 51°22.073 2°59.138 49.4 11.4 46 12.9
2006-08-29 07:33:38 51°22.084 2°59.156 48.9 11.5 44 12.9
2006-08-29 07:33:43 51°22.096 2°59.173 47.9 11.4 42 12.9
2006-08-29 07:33:48 51°22.109 2°59.191 49.7 11.5 45 13.1
2006-08-29 07:33:53 51°22.12 2°59.208 47 11.5 42 13.2
2006-08-29 07:33:58 51°22.131 2°59.225 46.4 11.4 43 12.9
2006-08-29 07:34:03 51°22.144 2°59.241 47.7 11.6 40 12.9
2006-08-29 07:34:08 51°22.155 2°59.256 45.7 11.4 41 12.8
2006-08-29 07:34:13 51°22.168 2°59.273 45.3 11.4 41 12.9
2006-08-29 07:34:18 51°22.18 2°59.29 47.1 11.6 43 13.1
2006-08-29 07:34:23 51°22.191 2°59.307 45.5 11.5 39 13.2
2006-08-29 07:34:28 51°22.204 2°59.324 47.3 11.6 43 13
2006-08-29 07:34:33 51°22.216 2°59.34 45.8 11.6 39 13.1
2006-08-29 07:34:38 51°22.228 2°59.358 46.3 11.6 43 13.1
2006-08-29 07:34:42 51°22.237 2°59.371 46.4 11.6 40 13.3
2006-08-29 07:34:48 51°22.25 2°59.392 46.6 11.5 45 13
2006-08-29 07:34:52 51°22.262 2°59.404 47.5 11.5 38 13.1
2006-08-29 07:34:58 51°22.276 2°59.423 46.3 11.4 41 13.1
2006-08-29 07:35:02 51°22.285 2°59.435 43.6 11.2 38 13
2006-08-29 07:35:08 51°22.3 2°59.453 41.8 11 37 13
2006-08-29 07:35:12 51°22.311 2°59.463 40.5 11.2 34 13
2006-08-29 07:35:18 51°22.327 2°59.479 39.3 11.2 31 13.2
2006-08-29 07:35:22 51°22.337 2°59.492 37.1 11.2 31 13.2
2006-08-29 07:35:28 51°22.354 2°59.505 36.7 11.3 29 13.6
2006-08-29 07:35:33 51°22.367 2°59.52 36.1 11.2 31 13.7
2006-08-29 07:35:38 51°22.381 2°59.53 36 11.4 29 13.7
2006-08-29 07:35:42 51°22.391 2°59.543 35.7 11.3 34 13.7
2006-08-29 07:35:48 51°22.408 2°59.557 35.8 11.4 28 13.6
2006-08-29 07:35:52 51°22.419 2°59.567 34.9 11.3 29 13.6
2006-08-29 07:35:58 51°22.436 2°59.583 36.5 11.4 32 13.6
2006-08-29 07:36:03 51°22.449 2°59.595 35.5 11.6 29 13.8
2006-08-29 07:36:08 51°22.463 2°59.607 35.5 11.4 29 13.7
2006-08-29 07:36:13 51°22.476 2°59.621 34.2 11.3 27 13.6
2006-08-29 07:36:18 51°22.491 2°59.632 35.4 11.4 30 13.8
2006-08-29 07:36:23 51°22.504 2°59.645 33.9 11.5 29 13.6
2006-08-29 07:36:28 51°22.518 2°59.658 35.3 11.4 29 13.4
2006-08-29 07:36:32 51°22.529 2°59.668 35.1 11.5 30 13.7
2006-08-29 07:36:38 51°22.545 2°59.682 34.1 11.5 29 13.6
2006-08-29 07:36:43 51°22.56 2°59.694 33.9 11.4 27 13.8
2006-08-29 07:36:48 51°22.573 2°59.707 33.9 11.4 29 13.9
2006-08-29 07:36:52 51°22.584 2°59.716 34.4 11.4 30 14
2006-08-29 07:36:58 51°22.602 2°59.732 34.2 11.5 31 14.1
2006-08-29 07:37:02 51°22.613 2°59.741 33.9 11.5 26 13.9
2006-08-29 07:37:08 51°22.629 2°59.754 35 11.5 30 13.8
2006-08-29 07:37:13 51°22.643 2°59.768 34.2 11.3 29 13.7
2006-08-29 07:37:18 51°22.657 2°59.779 34.8 11.6 29 14
2006-08-29 07:37:23 51°22.67 2°59.791 34.2 11.4 29 14.1
2006-08-29 07:37:28 51°22.683 2°59.802 35 10.9 29 13.7
2006-08-29 07:37:32 51°22.693 2°59.809 32.9 10 24 13.8
2006-08-29 07:37:38 51°22.707 2°59.824 33 9.4 31 14.1
2006-08-29 07:37:42 51°22.716 2°59.829 31.9 9.1 24 14.1
2006-08-29 07:37:48 51°22.729 2°59.84 31.9 8.7 27 14.4
2006-08-29 07:37:53 51°22.74 2°59.849 31.2 8.7 23 14.2
2006-08-29 07:37:58 51°22.75 2°59.857 31.4 8.3 25 14.1
2006-08-29 07:38:03 51°22.76 2°59.864 32.2 8.2 27 14.1
2006-08-29 07:38:08 51°22.77 2°59.872 32 8 26 14
2006-08-29 07:38:13 51°22.78 2°59.88 32.3 7.9 27 14.2
2006-08-29 07:38:18 51°22.79 2°59.888 31.9 7.9 25 14.4
2006-08-29 07:38:22 51°22.798 2°59.894 32.3 7.8 27 14.5
2006-08-29 07:38:28 51°22.81 2°59.902 32 7.8 25 14.6
2006-08-29 07:38:33 51°22.819 2°59.909 31.4 7.8 25 14.7
2006-08-29 07:38:38 51°22.829 2°59.918 31.2 7.6 26 14.8
2006-08-29 07:38:43 51°22.838 2°59.925 30.1 7.7 23 14.9
2006-08-29 07:38:48 51°22.848 2°59.931 29.9 7.4 23 15.1
2006-08-29 07:38:52 51°22.855 2°59.935 29.4 7.1 22 15.3
2006-08-29 07:38:58 51°22.863 2°59.942 28.6 6.6 24 15.1
2006-08-29 07:39:03 51°22.872 2°59.947 28.1 6.2 23 15.3
2006-08-29 07:39:08 51°22.879 2°59.951 27.5 5.8 22 15.3
2006-08-29 07:39:12 51°22.885 2°59.954 26.6 5.6 19 15.1
2006-08-29 07:39:18 51°22.894 2°59.958 25.6 5.5 19 15.2
2006-08-29 07:39:23 51°22.901 2°59.962 24.7 5.2 19 15.2
2006-08-29 07:39:28 51°22.908 2°59.966 23.7 5 18 15.2
2006-08-29 07:39:33 51°22.913 2°59.97 22.5 4.7 17 15.2
2006-08-29 07:39:38 51°22.92 2°59.972 22.1 4.6 16 15.2
2006-08-29 07:39:42 51°22.925 2°59.975 22.1 4.4 17 15.4
2006-08-29 07:39:48 51°22.931 2°59.976 22.7 4.4 16 15.3
2006-08-29 07:39:52 51°22.935 2°59.979 23 4.1 19 15.2
2006-08-29 07:39:58 51°22.941 2°59.983 23.2 4.1 20 15.2
2006-08-29 07:40:02 51°22.945 2°59.984 24.1 3.6 16 15.2
2006-08-29 07:40:08 51°22.95 2°59.987 25.4 3.4 17 15.1
2006-08-29 07:40:13 51°22.955 2°59.989 25.9 3.3 20 15.1
2006-08-29 07:40:18 51°22.958 2°59.992 25 3.1 19 15.1
2006-08-29 07:40:21 51°22.961 2°59.994 24.7 3.1 18 15.3
2006-08-29 07:40:28 51°22.966 2°59.996 25 2.9 21 15.6
2006-08-29 07:40:33 51°22.97 2°59.998 25.3 2.8 18 15.6
2006-08-29 07:40:38 51°22.974 3°0 25.5 2.7 21 15.8
2006-08-29 07:40:42 51°22.977 3°0.002 26.1 2.7 19 15.8
2006-08-29 07:40:48 51°22.98 3°0.005 26.1 2.7 23 15.8
2006-08-29 07:40:53 51°22.984 3°0.006 26 2.7 20 15.9
2006-08-29 07:40:58 51°22.987 3°0.009 26.6 2.3 34 15.7
2006-08-29 07:41:02 51°22.989 3°0.012 28.2 2.1 31 15.4
2006-08-29 07:41:08 51°22.991 3°0.013 29 1.9 29 15.2
2006-08-29 07:41:12 51°22.993 3°0.014 29.1 1.8 20 15.1
2006-08-29 07:41:18 51°22.996 3°0.015 29 1.7 23 15.4
2006-08-29 07:41:23 51°22.998 3°0.017 28.6 1.7 27 15.7
2006-08-29 07:41:28 51°23 3°0.019 28.2 1.7 25 15.9
2006-08-29 07:41:33 51°23.002 3°0.02 27.7 1.6 19 15.9
2006-08-29 07:41:38 51°23.003 3°0.021 27.2 1.6 11 15.8
2006-08-29 07:41:43 51°23.006 3°0.021 27 1.6 23 15.8
2006-08-29 07:41:48 51°23.007 3°0.023 27.1 1.4 31 15.5
2006-08-29 07:41:53 51°23.008 3°0.024 26.8 1.1 24 15.5
2006-08-29 07:41:58 51°23.01 3°0.025 26.8 1.2 19 15.6
2006-08-29 07:42:01 51°23.011 3°0.026 26.7 1.1 24 15.8
2006-08-29 07:42:08 51°23.013 3°0.027 26.1 1 19 15.9
2006-08-29 07:42:13 51°23.015 3°0.027 25.4 1.5 18 16
2006-08-29 07:42:18 51°23.017 3°0.028 23.5 1.5 18 16
2006-08-29 07:42:23 51°23.019 3°0.029 21.7 1.6 17 15.9
2006-08-29 07:42:28 51°23.021 3°0.03 20.8 1.5 19 16
2006-08-29 07:42:33 51°23.022 3°0.032 20.2 1.4 13 16
2006-08-29 07:42:38 51°23.024 3°0.032 20.3 1.1 359 15.8
2006-08-29 07:42:42 51°23.025 3°0.031 20 0.8 15 15.6
2006-08-29 07:42:48 51°23.025 3°0.031 19.7 0.3 -999 15.7
2006-08-29 07:42:53 51°23.025 3°0.031 19.7 0.1 233 15.8
2006-08-29 07:42:58 51°23.024 3°0.03 19.7 0.4 208 15.7
2006-08-29 07:43:02 51°23.024 3°0.03 21 0.4 205 15.9
2006-08-29 07:43:08 51°23.023 3°0.03 22.7 0.5 181 15.9
2006-08-29 07:43:13 51°23.023 3°0.03 24.1 0.5 224 16
2006-08-29 07:43:18 51°23.022 3°0.029 25.4 0.4 205 15.8
2006-08-29 07:43:22 51°23.022 3°0.029 27.5 0.4 204 15.9
2006-08-29 07:43:28 51°23.021 3°0.029 29 0.4 205 15.8
2006-08-29 07:43:32 51°23.02 3°0.028 29.7 0.5 186 15.8
2006-08-29 07:43:38 51°23.02 3°0.029 30.8 0.5 188 15.9
2006-08-29 07:43:42 51°23.019 3°0.028 31.9 0.6 196 15.7
2006-08-29 07:43:48 51°23.019 3°0.028 33.5 0.6 189 15.7
2006-08-29 07:43:53 51°23.018 3°0.029 35.7 0.5 194 15.6
2006-08-29 07:43:58 51°23.018 3°0.028 36.6 0.4 219 15.7
2006-08-29 07:44:03 51°23.016 3°0.027 37.8 0.6 160 15.8
2006-08-29 07:44:08 51°23.016 3°0.027 39.6 0.4 200 15.9
2006-08-29 07:44:13 51°23.015 3°0.026 39.9 0.4 216 15.8
2006-08-29 07:44:18 51°23.015 3°0.026 40.4 0.5 172 15.8
2006-08-29 07:44:22 51°23.014 3°0.026 41.9 0.4 212 15.9
2006-08-29 07:44:28 51°23.014 3°0.026 42.5 0.5 180 15.9
2006-08-29 07:44:33 51°23.013 3°0.026 43.1 0.5 186 15.9
2006-08-29 07:44:38 51°23.012 3°0.026 43.4 0.4 211 15.7
2006-08-29 07:44:43 51°23.012 3°0.025 43.5 0.6 175 15.7
2006-08-29 07:44:48 51°23.011 3°0.025 44.4 0.5 179 15.8
2006-08-29 07:44:52 51°23.011 3°0.025 44.6 0.4 189 15.8
2006-08-29 07:44:58 51°23.01 3°0.025 44.5 0.4 191 15.7
2006-08-29 07:45:02 51°23.009 3°0.025 45.2 0.6 173 15.7
2006-08-29 07:45:07 51°23.008 3°0.026 45.9 0.7 164 15.8
2006-08-29 07:45:13 51°23.008 3°0.026 46.4 0.5 174 15.6
2006-08-29 07:45:18 51°23.007 3°0.026 47.1 0.5 190 15.6
2006-08-29 07:45:23 51°23.006 3°0.025 47.9 0.6 177 15.5
2006-08-29 07:45:28 51°23.006 3°0.025 48.4 0.4 204 15.4
2006-08-29 07:45:32 51°23.006 3°0.024 49.2 0.5 197 15.6
2006-08-29 07:45:38 51°23.005 3°0.024 49.5 0.5 200 15.8
2006-08-29 07:45:43 51°23.004 3°0.024 49.1 0.6 188 15.9
2006-08-29 07:45:48 51°23.003 3°0.025 49.3 0.6 192 15.8
2006-08-29 07:45:52 51°23.003 3°0.023 49.3 0.5 218 15.6
2006-08-29 07:45:58 51°23.003 3°0.023 48.9 0.7 177 15.5
2006-08-29 07:46:02 51°23.001 3°0.023 48.9 0.6 184 15.5
2006-08-29 07:46:08 51°23.001 3°0.023 47.8 0.4 201 15.4
2006-08-29 07:46:12 51°23 3°0.023 47.8 0.3 207 15.5
2006-08-29 07:46:17 51°23 3°0.022 47.5 0.4 192 15.6
2006-08-29 07:46:22 51°22.999 3°0.022 47.3 0.4 216 15.7
2006-08-29 07:46:28 51°22.998 3°0.022 46.8 0.6 180 15.8
2006-08-29 07:46:33 51°22.998 3°0.022 46.7 0.4 199 15.9
2006-08-29 07:46:38 51°22.997 3°0.021 46.5 0.4 194 15.8
2006-08-29 07:46:43 51°22.997 3°0.021 46.4 0.4 203 15.7
2006-08-29 07:46:48 51°22.996 3°0.021 45.9 0.5 190 15.7
2006-08-29 07:46:52 51°22.995 3°0.021 46.6 0.5 193 15.7
2006-08-29 07:46:58 51°22.995 3°0.02 46.4 0.5 189 15.7
2006-08-29 07:47:02 51°22.994 3°0.02 46.3 0.6 205 15.7
2006-08-29 07:47:08 51°22.994 3°0.021 46.2 0.4 175 15.7
2006-08-29 07:47:13 51°22.994 3°0.021 45.7 0.4 182 15.4
2006-08-29 07:47:18 51°22.993 3°0.021 45.8 0.6 166 15.4
2006-08-29 07:47:22 51°22.993 3°0.021 45.4 0.3 194 15.5
2006-08-29 07:47:28 51°22.992 3°0.021 45 0.4 164 15.4
2006-08-29 07:47:33 51°22.991 3°0.021 45.8 0.5 160 15.5
2006-08-29 07:47:38 51°22.991 3°0.022 45 0.4 194 15.5
2006-08-29 07:47:43 51°22.991 3°0.021 44 0.5 171 15.4
2006-08-29 07:47:47 51°22.99 3°0.022 43.9 0.3 173 15.5
2006-08-29 07:47:52 51°22.989 3°0.021 43.5 0.4 181 15.5
2006-08-29 07:47:58 51°22.988 3°0.021 43.5 0.4 200 15.3
2006-08-29 07:48:02 51°22.987 3°0.022 43.6 0.4 181 15.3
2006-08-29 07:48:07 51°22.986 3°0.023 43.9 0.4 197 15.3
2006-08-29 07:48:12 51°22.985 3°0.023 43.7 0.4 207 15.2
2006-08-29 07:48:18 51°22.983 3°0.025 43.6 0.5 208 15.1
2006-08-29 07:48:23 51°22.982 3°0.026 43 0.5 209 15.1
2006-08-29 07:48:28 51°22.98 3°0.027 42.9 0.5 210 15.1
2006-08-29 07:48:33 51°22.979 3°0.028 43.3 0.4 205 15.2
2006-08-29 07:48:38 51°22.982 3°0.023 43.6 0.5 210 15.4
2006-08-29 07:48:43 51°22.981 3°0.023 42.8 0.5 212 15.6
2006-08-29 07:48:48 51°22.981 3°0.022 42 0.4 217 15.6
2006-08-29 07:48:53 51°22.98 3°0.022 41.5 0.5 170 15.7
2006-08-29 07:48:58 51°22.98 3°0.022 41.5 0.5 174 15.7
2006-08-29 07:49:02 51°22.979 3°0.021 41.2 0.4 206 15.6
2006-08-29 07:49:08 51°22.979 3°0.021 40.8 0.4 194 15.6
2006-08-29 07:49:13 51°22.978 3°0.021 39.9 0.3 179 15.6
2006-08-29 07:49:18 51°22.977 3°0.021 39.4 0.4 175 15.5
2006-08-29 07:49:22 51°22.977 3°0.021 38.5 0.3 204 15.4
2006-08-29 07:49:28 51°22.976 3°0.021 38.1 0.3 169 15.4
2006-08-29 07:49:33 51°22.976 3°0.022 37.4 0.3 244 15.3
2006-08-29 07:49:38 51°22.976 3°0.021 36.4 0.4 187 15.3
2006-08-29 07:49:43 51°22.975 3°0.02 36.1 0.4 223 15.2
2006-08-29 07:49:48 51°22.975 3°0.02 36.7 0.4 174 15.1
2006-08-29 07:49:53 51°22.974 3°0.02 36.5 0.4 192 15.2
2006-08-29 07:49:58 51°22.974 3°0.021 36.2 0.6 162 15.2
2006-08-29 07:50:02 51°22.973 3°0.021 36 0.4 195 15.3
2006-08-29 07:50:08 51°22.972 3°0.022 36 0.4 176 15.4
2006-08-29 07:50:13 51°22.972 3°0.021 35.5 0.4 193 15.4
2006-08-29 07:50:18 51°22.971 3°0.021 35.8 0.6 164 15.6
2006-08-29 07:50:23 51°22.971 3°0.021 36.5 0.5 172 15.5
2006-08-29 07:50:28 51°22.97 3°0.021 36.3 0.6 181 15.3
2006-08-29 07:50:32 51°22.969 3°0.021 36.4 0.5 184 15.2
2006-08-29 07:50:38 51°22.968 3°0.021 37.5 0.4 180 15.2
2006-08-29 07:50:42 51°22.968 3°0.021 37.9 0.3 221 15.4
2006-08-29 07:50:48 51°22.968 3°0.021 38.4 0.4 189 15.5
2006-08-29 07:50:52 51°22.967 3°0.021 38.9 0.3 199 15.7
2006-08-29 07:50:57 51°22.967 3°0.021 38.7 0.2 169 15.7
2006-08-29 07:51:02 51°22.967 3°0.021 37.9 0.2 112 15.7
2006-08-29 07:51:08 51°22.967 3°0.022 37 0.3 61 15.7
2006-08-29 07:51:13 51°22.968 3°0.023 35.6 0.6 57 15.6
2006-08-29 07:51:18 51°22.968 3°0.024 34.8 0.9 49 15.5
2006-08-29 07:51:23 51°22.97 3°0.026 35 1.4 32 15.3
2006-08-29 07:51:28 51°22.972 3°0.028 36.1 1.7 32 15.1
2006-08-29 07:51:32 51°22.974 3°0.03 37.4 2 36 15.2
2006-08-29 07:51:38 51°22.977 3°0.035 38.5 2.3 35 15.2
2006-08-29 07:51:42 51°22.98 3°0.038 41.1 2.9 38 15.2
2006-08-29 07:51:47 51°22.984 3°0.043 44.7 3.4 42 15.1
2006-08-29 07:51:53 51°22.988 3°0.051 49.3 3.9 49 15.2
2006-08-29 07:51:58 51°22.991 3°0.059 55 4.2 55 15.2
2006-08-29 07:52:03 51°22.995 3°0.069 60.6 4.5 59 15.3
2006-08-29 07:52:08 51°22.997 3°0.079 66.7 4.9 69 15.4
2006-08-29 07:52:12 51°22.998 3°0.089 73.5 5.3 76 15.5
2006-08-29 07:52:18 51°22.999 3°0.104 81.4 5.6 82 15.4
2006-08-29 07:52:23 51°22.998 3°0.117 89.7 5.8 93 15.5
2006-08-29 07:52:28 51°22.995 3°0.13 98.1 6.1 104 15.4
2006-08-29 07:52:32 51°22.993 3°0.14 105.9 6.3 111 15.3
2006-08-29 07:52:38 51°22.987 3°0.155 114.7 6.4 120 15.3
2006-08-29 07:52:43 51°22.98 3°0.166 123.2 6.6 130 15.2
2006-08-29 07:52:48 51°22.973 3°0.175 130.9 6.7 140 15.2
2006-08-29 07:52:53 51°22.964 3°0.184 139.1 7 146 15
2006-08-29 07:52:58 51°22.955 3°0.189 147.7 7.1 159 14.8
2006-08-29 07:53:03 51°22.945 3°0.193 155.1 7.3 164 14.7
2006-08-29 07:53:08 51°22.935 3°0.194 164 7.4 171 14.6
2006-08-29 07:53:13 51°22.924 3°0.195 172.1 7.5 179 14.4
2006-08-29 07:53:18 51°22.914 3°0.191 179.2 7.7 188 14.4
2006-08-29 07:53:23 51°22.903 3°0.187 186.7 7.7 191 14.2